sensor_id;sensor_type;location;lat;lon;timestamp;P1;durP1;ratioP1;P2;durP2;ratioP2
43248;SDS011;29216;51.248;6.808;2023-03-01T00:01:09;8.13;;;5.20;;
43248;SDS011;29216;51.248;6.808;2023-03-01T00:03:39;7.87;;;5.30;;
43248;SDS011;29216;51.248;6.808;2023-03-01T00:06:05;10.10;;;5.40;;
43248;SDS011;29216;51.248;6.808;2023-03-01T00:08:32;9.30;;;5.00;;
43248;SDS011;29216;51.248;6.808;2023-03-01T00:13:31;12.43;;;5.20;;
43248;SDS011;29216;51.248;6.808;2023-03-01T00:15:58;10.30;;;6.00;;
43248;SDS011;29216;51.248;6.808;2023-03-01T00:18:23;11.07;;;6.97;;
43248;SDS011;29216;51.248;6.808;2023-03-01T00:20:53;11.17;;;5.60;;
43248;SDS011;29216;51.248;6.808;2023-03-01T00:23:19;10.23;;;5.97;;
43248;SDS011;29216;51.248;6.808;2023-03-01T00:25:46;9.77;;;5.43;;
43248;SDS011;29216;51.248;6.808;2023-03-01T00:28:11;8.63;;;6.10;;
43248;SDS011;29216;51.248;6.808;2023-03-01T00:30:37;12.80;;;5.93;;
43248;SDS011;29216;51.248;6.808;2023-03-01T00:33:03;10.27;;;5.90;;
43248;SDS011;29216;51.248;6.808;2023-03-01T00:35:29;9.43;;;6.10;;
43248;SDS011;29216;51.248;6.808;2023-03-01T00:37:58;13.27;;;6.00;;
43248;SDS011;29216;51.248;6.808;2023-03-01T00:40:24;8.07;;;5.77;;
43248;SDS011;29216;51.248;6.808;2023-03-01T00:42:50;11.63;;;7.53;;
43248;SDS011;29216;51.248;6.808;2023-03-01T00:45:16;12.17;;;5.27;;
43248;SDS011;29216;51.248;6.808;2023-03-01T00:47:42;9.43;;;6.50;;
43248;SDS011;29216;51.248;6.808;2023-03-01T00:50:08;10.27;;;5.67;;
43248;SDS011;29216;51.248;6.808;2023-03-01T00:52:35;9.03;;;6.07;;
43248;SDS011;29216;51.248;6.808;2023-03-01T00:55:01;10.10;;;5.83;;
43248;SDS011;29216;51.248;6.808;2023-03-01T00:57:26;15.43;;;6.63;;
43248;SDS011;29216;51.248;6.808;2023-03-01T00:59:52;9.83;;;6.13;;
43248;SDS011;29216;51.248;6.808;2023-03-01T01:02:18;12.30;;;6.67;;
43248;SDS011;29216;51.248;6.808;2023-03-01T01:04:45;10.97;;;6.93;;
43248;SDS011;29216;51.248;6.808;2023-03-01T01:07:11;10.47;;;6.13;;
43248;SDS011;29216;51.248;6.808;2023-03-01T01:09:38;10.47;;;7.17;;
43248;SDS011;29216;51.248;6.808;2023-03-01T01:12:03;10.67;;;6.30;;
43248;SDS011;29216;51.248;6.808;2023-03-01T01:14:30;11.77;;;6.17;;
43248;SDS011;29216;51.248;6.808;2023-03-01T01:16:55;11.30;;;6.37;;
43248;SDS011;29216;51.248;6.808;2023-03-01T01:19:21;9.83;;;6.60;;
43248;SDS011;29216;51.248;6.808;2023-03-01T01:21:47;12.97;;;6.40;;
43248;SDS011;29216;51.248;6.808;2023-03-01T01:24:13;9.60;;;6.87;;
43248;SDS011;29216;51.248;6.808;2023-03-01T01:26:40;9.87;;;6.07;;
43248;SDS011;29216;51.248;6.808;2023-03-01T01:29:06;9.97;;;6.60;;
43248;SDS011;29216;51.248;6.808;2023-03-01T01:31:33;10.23;;;6.83;;
43248;SDS011;29216;51.248;6.808;2023-03-01T01:34:01;10.50;;;6.27;;
43248;SDS011;29216;51.248;6.808;2023-03-01T01:36:28;8.43;;;6.43;;
43248;SDS011;29216;51.248;6.808;2023-03-01T01:38:54;9.70;;;6.57;;
43248;SDS011;29216;51.248;6.808;2023-03-01T01:41:20;10.20;;;6.33;;
43248;SDS011;29216;51.248;6.808;2023-03-01T01:43:47;8.20;;;5.77;;
43248;SDS011;29216;51.248;6.808;2023-03-01T01:46:30;13.30;;;7.03;;
43248;SDS011;29216;51.248;6.808;2023-03-01T01:49:01;9.93;;;6.80;;
43248;SDS011;29216;51.248;6.808;2023-03-01T01:51:38;7.87;;;5.90;;
43248;SDS011;29216;51.248;6.808;2023-03-01T01:54:12;12.97;;;7.00;;
43248;SDS011;29216;51.248;6.808;2023-03-01T01:56:42;11.57;;;6.80;;
43248;SDS011;29216;51.248;6.808;2023-03-01T01:59:12;10.60;;;6.73;;
43248;SDS011;29216;51.248;6.808;2023-03-01T02:01:39;8.90;;;6.53;;
43248;SDS011;29216;51.248;6.808;2023-03-01T02:04:04;10.17;;;6.67;;
43248;SDS011;29216;51.248;6.808;2023-03-01T02:06:37;13.13;;;7.33;;
43248;SDS011;29216;51.248;6.808;2023-03-01T02:09:07;10.80;;;6.90;;
43248;SDS011;29216;51.248;6.808;2023-03-01T02:11:37;9.53;;;6.60;;
43248;SDS011;29216;51.248;6.808;2023-03-01T02:14:03;12.00;;;7.70;;
43248;SDS011;29216;51.248;6.808;2023-03-01T02:16:29;9.73;;;6.53;;
43248;SDS011;29216;51.248;6.808;2023-03-01T02:18:55;16.93;;;8.07;;
43248;SDS011;29216;51.248;6.808;2023-03-01T02:24:23;13.37;;;7.03;;
43248;SDS011;29216;51.248;6.808;2023-03-01T02:27:32;11.63;;;7.15;;
43248;SDS011;29216;51.248;6.808;2023-03-01T02:30:05;16.57;;;7.97;;
43248;SDS011;29216;51.248;6.808;2023-03-01T02:32:31;9.47;;;6.90;;
43248;SDS011;29216;51.248;6.808;2023-03-01T02:34:57;11.50;;;6.40;;
43248;SDS011;29216;51.248;6.808;2023-03-01T02:37:23;10.40;;;7.23;;
43248;SDS011;29216;51.248;6.808;2023-03-01T02:39:58;9.40;;;7.17;;
43248;SDS011;29216;51.248;6.808;2023-03-01T02:42:31;10.00;;;7.07;;
43248;SDS011;29216;51.248;6.808;2023-03-01T02:45:01;9.55;;;6.82;;
43248;SDS011;29216;51.248;6.808;2023-03-01T02:47:28;12.07;;;7.87;;
43248;SDS011;29216;51.248;6.808;2023-03-01T02:49:53;10.97;;;7.43;;
43248;SDS011;29216;51.248;6.808;2023-03-01T02:57:38;13.57;;;7.20;;
43248;SDS011;29216;51.248;6.808;2023-03-01T03:00:28;10.40;;;7.13;;
43248;SDS011;29216;51.248;6.808;2023-03-01T03:02:58;13.30;;;7.50;;
43248;SDS011;29216;51.248;6.808;2023-03-01T03:05:26;13.03;;;8.37;;
43248;SDS011;29216;51.248;6.808;2023-03-01T03:07:53;14.10;;;7.97;;
43248;SDS011;29216;51.248;6.808;2023-03-01T03:12:51;10.40;;;7.67;;
43248;SDS011;29216;51.248;6.808;2023-03-01T03:15:18;12.03;;;7.43;;
43248;SDS011;29216;51.248;6.808;2023-03-01T03:17:45;11.70;;;7.77;;
43248;SDS011;29216;51.248;6.808;2023-03-01T03:20:12;13.60;;;8.40;;
43248;SDS011;29216;51.248;6.808;2023-03-01T03:22:44;11.17;;;6.77;;
43248;SDS011;29216;51.248;6.808;2023-03-01T03:25:10;11.40;;;7.07;;
43248;SDS011;29216;51.248;6.808;2023-03-01T03:27:38;11.90;;;7.60;;
43248;SDS011;29216;51.248;6.808;2023-03-01T03:30:05;13.17;;;7.27;;
43248;SDS011;29216;51.248;6.808;2023-03-01T03:32:37;11.60;;;7.20;;
43248;SDS011;29216;51.248;6.808;2023-03-01T03:35:04;13.30;;;6.83;;
43248;SDS011;29216;51.248;6.808;2023-03-01T03:37:40;13.80;;;7.70;;
43248;SDS011;29216;51.248;6.808;2023-03-01T03:40:25;11.33;;;7.40;;
43248;SDS011;29216;51.248;6.808;2023-03-01T03:42:51;14.73;;;8.63;;
43248;SDS011;29216;51.248;6.808;2023-03-01T03:45:17;12.80;;;7.87;;
43248;SDS011;29216;51.248;6.808;2023-03-01T03:47:43;11.53;;;7.67;;
43248;SDS011;29216;51.248;6.808;2023-03-01T03:50:09;11.53;;;8.37;;
43248;SDS011;29216;51.248;6.808;2023-03-01T03:52:36;13.00;;;7.63;;
43248;SDS011;29216;51.248;6.808;2023-03-01T03:55:02;13.90;;;7.80;;
43248;SDS011;29216;51.248;6.808;2023-03-01T03:57:28;13.93;;;8.23;;
43248;SDS011;29216;51.248;6.808;2023-03-01T03:59:54;14.33;;;8.13;;
43248;SDS011;29216;51.248;6.808;2023-03-01T04:02:19;15.77;;;8.27;;
43248;SDS011;29216;51.248;6.808;2023-03-01T04:04:47;11.53;;;8.00;;
43248;SDS011;29216;51.248;6.808;2023-03-01T04:07:17;11.63;;;7.87;;
43248;SDS011;29216;51.248;6.808;2023-03-01T04:09:43;18.40;;;8.37;;
43248;SDS011;29216;51.248;6.808;2023-03-01T04:12:09;11.77;;;8.07;;
43248;SDS011;29216;51.248;6.808;2023-03-01T04:14:35;14.17;;;8.50;;
43248;SDS011;29216;51.248;6.808;2023-03-01T04:17:01;12.80;;;7.70;;
43248;SDS011;29216;51.248;6.808;2023-03-01T04:19:30;14.43;;;8.27;;
43248;SDS011;29216;51.248;6.808;2023-03-01T04:22:01;15.30;;;8.40;;
43248;SDS011;29216;51.248;6.808;2023-03-01T04:24:34;9.33;;;6.47;;
43248;SDS011;29216;51.248;6.808;2023-03-01T04:27:00;14.57;;;7.77;;
43248;SDS011;29216;51.248;6.808;2023-03-01T04:29:26;12.37;;;7.83;;
43248;SDS011;29216;51.248;6.808;2023-03-01T04:31:51;12.73;;;8.03;;
43248;SDS011;29216;51.248;6.808;2023-03-01T04:34:17;11.93;;;8.30;;
43248;SDS011;29216;51.248;6.808;2023-03-01T04:36:43;13.83;;;7.93;;
43248;SDS011;29216;51.248;6.808;2023-03-01T04:39:09;12.67;;;8.00;;
43248;SDS011;29216;51.248;6.808;2023-03-01T04:41:37;12.73;;;8.20;;
43248;SDS011;29216;51.248;6.808;2023-03-01T04:44:03;12.33;;;7.87;;
43248;SDS011;29216;51.248;6.808;2023-03-01T04:46:30;11.97;;;7.87;;
43248;SDS011;29216;51.248;6.808;2023-03-01T04:48:55;12.13;;;8.10;;
43248;SDS011;29216;51.248;6.808;2023-03-01T04:51:21;12.67;;;8.10;;
43248;SDS011;29216;51.248;6.808;2023-03-01T04:53:47;15.20;;;8.60;;
43248;SDS011;29216;51.248;6.808;2023-03-01T04:56:12;11.93;;;7.73;;
43248;SDS011;29216;51.248;6.808;2023-03-01T04:58:39;11.60;;;8.33;;
43248;SDS011;29216;51.248;6.808;2023-03-01T05:01:15;13.10;;;7.83;;
43248;SDS011;29216;51.248;6.808;2023-03-01T05:03:49;13.10;;;8.10;;
43248;SDS011;29216;51.248;6.808;2023-03-01T05:06:19;15.02;;;8.52;;
43248;SDS011;29216;51.248;6.808;2023-03-01T05:08:45;18.50;;;8.70;;
43248;SDS011;29216;51.248;6.808;2023-03-01T05:11:11;14.53;;;8.13;;
43248;SDS011;29216;51.248;6.808;2023-03-01T05:13:37;11.83;;;7.93;;
43248;SDS011;29216;51.248;6.808;2023-03-01T05:16:04;19.27;;;7.87;;
43248;SDS011;29216;51.248;6.808;2023-03-01T05:18:32;17.73;;;8.60;;
43248;SDS011;29216;51.248;6.808;2023-03-01T05:21:05;13.87;;;8.50;;
43248;SDS011;29216;51.248;6.808;2023-03-01T05:25:59;15.47;;;8.20;;
43248;SDS011;29216;51.248;6.808;2023-03-01T05:28:26;14.67;;;8.93;;
43248;SDS011;29216;51.248;6.808;2023-03-01T05:30:53;13.03;;;8.87;;
43248;SDS011;29216;51.248;6.808;2023-03-01T05:33:19;13.40;;;8.60;;
43248;SDS011;29216;51.248;6.808;2023-03-01T05:35:46;14.47;;;9.57;;
43248;SDS011;29216;51.248;6.808;2023-03-01T05:38:13;15.77;;;8.73;;
43248;SDS011;29216;51.248;6.808;2023-03-01T05:40:39;18.00;;;9.43;;
43248;SDS011;29216;51.248;6.808;2023-03-01T05:43:06;13.37;;;9.00;;
43248;SDS011;29216;51.248;6.808;2023-03-01T05:45:32;14.87;;;9.20;;
43248;SDS011;29216;51.248;6.808;2023-03-01T05:48:00;17.60;;;9.43;;
43248;SDS011;29216;51.248;6.808;2023-03-01T05:50:26;13.60;;;9.10;;
43248;SDS011;29216;51.248;6.808;2023-03-01T05:55:22;16.23;;;8.97;;
43248;SDS011;29216;51.248;6.808;2023-03-01T05:57:48;13.70;;;9.37;;
43248;SDS011;29216;51.248;6.808;2023-03-01T06:00:15;13.83;;;8.60;;
43248;SDS011;29216;51.248;6.808;2023-03-01T06:02:43;16.37;;;9.27;;
43248;SDS011;29216;51.248;6.808;2023-03-01T06:05:10;12.10;;;8.23;;
43248;SDS011;29216;51.248;6.808;2023-03-01T06:07:37;14.00;;;8.50;;
43248;SDS011;29216;51.248;6.808;2023-03-01T06:10:03;14.20;;;8.67;;
43248;SDS011;29216;51.248;6.808;2023-03-01T06:12:30;16.00;;;9.40;;
43248;SDS011;29216;51.248;6.808;2023-03-01T06:14:57;13.27;;;8.80;;
43248;SDS011;29216;51.248;6.808;2023-03-01T06:17:23;13.87;;;8.07;;
43248;SDS011;29216;51.248;6.808;2023-03-01T06:19:49;12.03;;;8.40;;
43248;SDS011;29216;51.248;6.808;2023-03-01T06:22:15;13.70;;;8.50;;
43248;SDS011;29216;51.248;6.808;2023-03-01T06:24:40;20.00;;;8.27;;
43248;SDS011;29216;51.248;6.808;2023-03-01T06:27:06;11.77;;;8.43;;
43248;SDS011;29216;51.248;6.808;2023-03-01T06:29:31;15.50;;;8.87;;
43248;SDS011;29216;51.248;6.808;2023-03-01T06:31:57;14.70;;;9.40;;
43248;SDS011;29216;51.248;6.808;2023-03-01T06:34:23;13.40;;;8.23;;
43248;SDS011;29216;51.248;6.808;2023-03-01T06:36:48;15.03;;;8.73;;
43248;SDS011;29216;51.248;6.808;2023-03-01T06:39:14;12.53;;;8.10;;
43248;SDS011;29216;51.248;6.808;2023-03-01T06:41:39;15.13;;;8.70;;
43248;SDS011;29216;51.248;6.808;2023-03-01T06:44:05;11.60;;;8.33;;
43248;SDS011;29216;51.248;6.808;2023-03-01T06:46:30;14.30;;;9.50;;
43248;SDS011;29216;51.248;6.808;2023-03-01T06:48:56;12.63;;;8.83;;
43248;SDS011;29216;51.248;6.808;2023-03-01T06:51:22;15.57;;;9.57;;
43248;SDS011;29216;51.248;6.808;2023-03-01T06:53:47;14.70;;;9.50;;
43248;SDS011;29216;51.248;6.808;2023-03-01T06:56:13;14.47;;;7.73;;
43248;SDS011;29216;51.248;6.808;2023-03-01T06:58:38;16.50;;;9.90;;
43248;SDS011;29216;51.248;6.808;2023-03-01T07:01:07;12.17;;;7.97;;
43248;SDS011;29216;51.248;6.808;2023-03-01T07:03:33;16.13;;;9.27;;
43248;SDS011;29216;51.248;6.808;2023-03-01T07:05:59;13.80;;;8.47;;
43248;SDS011;29216;51.248;6.808;2023-03-01T07:08:25;13.93;;;8.23;;
43248;SDS011;29216;51.248;6.808;2023-03-01T07:10:57;18.97;;;8.93;;
43248;SDS011;29216;51.248;6.808;2023-03-01T07:13:23;12.63;;;8.03;;
43248;SDS011;29216;51.248;6.808;2023-03-01T07:15:49;9.60;;;7.30;;
43248;SDS011;29216;51.248;6.808;2023-03-01T07:18:15;13.33;;;7.90;;
43248;SDS011;29216;51.248;6.808;2023-03-01T07:20:40;11.52;;;8.25;;
43248;SDS011;29216;51.248;6.808;2023-03-01T07:23:06;17.38;;;7.85;;
43248;SDS011;29216;51.248;6.808;2023-03-01T07:25:32;11.55;;;7.05;;
43248;SDS011;29216;51.248;6.808;2023-03-01T07:27:58;11.25;;;7.30;;
43248;SDS011;29216;51.248;6.808;2023-03-01T07:30:24;8.00;;;6.68;;
43248;SDS011;29216;51.248;6.808;2023-03-01T07:32:56;11.13;;;6.70;;
43248;SDS011;29216;51.248;6.808;2023-03-01T07:35:23;11.45;;;7.43;;
43248;SDS011;29216;51.248;6.808;2023-03-01T07:37:50;10.70;;;7.07;;
43248;SDS011;29216;51.248;6.808;2023-03-01T07:40:16;8.43;;;6.60;;
43248;SDS011;29216;51.248;6.808;2023-03-01T07:42:42;11.07;;;6.68;;
43248;SDS011;29216;51.248;6.808;2023-03-01T07:45:08;11.57;;;6.53;;
43248;SDS011;29216;51.248;6.808;2023-03-01T07:47:34;8.30;;;6.65;;
43248;SDS011;29216;51.248;6.808;2023-03-01T07:49:59;9.48;;;6.57;;
43248;SDS011;29216;51.248;6.808;2023-03-01T07:52:26;9.95;;;6.63;;
43248;SDS011;29216;51.248;6.808;2023-03-01T07:54:52;8.85;;;6.43;;
43248;SDS011;29216;51.248;6.808;2023-03-01T07:57:17;12.43;;;7.22;;
43248;SDS011;29216;51.248;6.808;2023-03-01T07:59:43;13.88;;;7.40;;
43248;SDS011;29216;51.248;6.808;2023-03-01T08:02:11;11.13;;;7.35;;
43248;SDS011;29216;51.248;6.808;2023-03-01T08:04:36;9.63;;;7.00;;
43248;SDS011;29216;51.248;6.808;2023-03-01T08:07:04;12.07;;;7.13;;
43248;SDS011;29216;51.248;6.808;2023-03-01T08:09:30;8.82;;;6.90;;
43248;SDS011;29216;51.248;6.808;2023-03-01T08:11:56;10.65;;;7.72;;
43248;SDS011;29216;51.248;6.808;2023-03-01T08:14:24;13.02;;;7.47;;
43248;SDS011;29216;51.248;6.808;2023-03-01T08:16:50;9.80;;;7.18;;
43248;SDS011;29216;51.248;6.808;2023-03-01T08:19:15;10.60;;;7.05;;
43248;SDS011;29216;51.248;6.808;2023-03-01T08:21:42;10.85;;;7.57;;
43248;SDS011;29216;51.248;6.808;2023-03-01T08:24:07;12.35;;;7.38;;
43248;SDS011;29216;51.248;6.808;2023-03-01T08:26:35;13.30;;;7.68;;
43248;SDS011;29216;51.248;6.808;2023-03-01T08:29:01;10.32;;;7.45;;
43248;SDS011;29216;51.248;6.808;2023-03-01T08:33:54;12.18;;;8.05;;
43248;SDS011;29216;51.248;6.808;2023-03-01T08:36:22;12.23;;;8.23;;
43248;SDS011;29216;51.248;6.808;2023-03-01T08:38:49;13.77;;;8.57;;
43248;SDS011;29216;51.248;6.808;2023-03-01T08:41:15;13.57;;;8.07;;
43248;SDS011;29216;51.248;6.808;2023-03-01T08:43:41;11.50;;;8.05;;
43248;SDS011;29216;51.248;6.808;2023-03-01T08:46:07;16.02;;;9.52;;
43248;SDS011;29216;51.248;6.808;2023-03-01T08:48:33;18.58;;;8.90;;
43248;SDS011;29216;51.248;6.808;2023-03-01T08:51:12;14.70;;;8.57;;
43248;SDS011;29216;51.248;6.808;2023-03-01T08:53:39;12.00;;;7.95;;
43248;SDS011;29216;51.248;6.808;2023-03-01T08:56:06;12.77;;;9.23;;
43248;SDS011;29216;51.248;6.808;2023-03-01T08:58:32;11.85;;;8.25;;
43248;SDS011;29216;51.248;6.808;2023-03-01T09:00:58;14.93;;;8.18;;
43248;SDS011;29216;51.248;6.808;2023-03-01T09:03:31;14.25;;;9.02;;
43248;SDS011;29216;51.248;6.808;2023-03-01T09:05:59;15.77;;;8.05;;
43248;SDS011;29216;51.248;6.808;2023-03-01T09:08:26;12.90;;;8.25;;
43248;SDS011;29216;51.248;6.808;2023-03-01T09:10:52;14.05;;;8.25;;
43248;SDS011;29216;51.248;6.808;2023-03-01T09:13:18;12.52;;;8.40;;
43248;SDS011;29216;51.248;6.808;2023-03-01T09:15:43;14.18;;;7.63;;
43248;SDS011;29216;51.248;6.808;2023-03-01T09:18:09;9.73;;;7.43;;
43248;SDS011;29216;51.248;6.808;2023-03-01T09:20:34;17.02;;;8.40;;
43248;SDS011;29216;51.248;6.808;2023-03-01T09:23:03;11.85;;;8.15;;
43248;SDS011;29216;51.248;6.808;2023-03-01T09:25:28;10.90;;;7.80;;
43248;SDS011;29216;51.248;6.808;2023-03-01T09:27:54;11.20;;;7.38;;
43248;SDS011;29216;51.248;6.808;2023-03-01T09:30:20;13.43;;;7.80;;
43248;SDS011;29216;51.248;6.808;2023-03-01T09:32:46;12.18;;;7.70;;
43248;SDS011;29216;51.248;6.808;2023-03-01T09:35:12;11.02;;;7.10;;
43248;SDS011;29216;51.248;6.808;2023-03-01T09:37:38;11.65;;;7.47;;
43248;SDS011;29216;51.248;6.808;2023-03-01T09:40:09;12.75;;;7.93;;
43248;SDS011;29216;51.248;6.808;2023-03-01T09:43:18;11.45;;;6.78;;
43248;SDS011;29216;51.248;6.808;2023-03-01T09:45:55;14.50;;;7.70;;
43248;SDS011;29216;51.248;6.808;2023-03-01T09:48:26;13.35;;;7.53;;
43248;SDS011;29216;51.248;6.808;2023-03-01T09:50:54;13.73;;;7.50;;
43248;SDS011;29216;51.248;6.808;2023-03-01T09:53:23;13.43;;;7.32;;
43248;SDS011;29216;51.248;6.808;2023-03-01T09:56:10;11.00;;;7.32;;
43248;SDS011;29216;51.248;6.808;2023-03-01T10:01:40;15.02;;;7.60;;
43248;SDS011;29216;51.248;6.808;2023-03-01T10:07:20;13.82;;;7.63;;
43248;SDS011;29216;51.248;6.808;2023-03-01T10:10:06;11.70;;;7.30;;
43248;SDS011;29216;51.248;6.808;2023-03-01T10:12:37;12.85;;;7.25;;
43248;SDS011;29216;51.248;6.808;2023-03-01T10:17:50;12.88;;;7.78;;
43248;SDS011;29216;51.248;6.808;2023-03-01T10:22:51;12.57;;;7.63;;
43248;SDS011;29216;51.248;6.808;2023-03-01T10:25:55;14.85;;;8.00;;
43248;SDS011;29216;51.248;6.808;2023-03-01T10:28:48;11.05;;;7.53;;
43248;SDS011;29216;51.248;6.808;2023-03-01T10:31:36;11.10;;;7.20;;
43248;SDS011;29216;51.248;6.808;2023-03-01T10:34:13;11.95;;;7.55;;
43248;SDS011;29216;51.248;6.808;2023-03-01T10:36:39;11.98;;;8.20;;
43248;SDS011;29216;51.248;6.808;2023-03-01T10:39:14;12.48;;;8.20;;
43248;SDS011;29216;51.248;6.808;2023-03-01T10:42:25;13.82;;;8.18;;
43248;SDS011;29216;51.248;6.808;2023-03-01T10:44:45;12.07;;;7.10;;
43248;SDS011;29216;51.248;6.808;2023-03-01T10:47:21;12.35;;;7.78;;
43248;SDS011;29216;51.248;6.808;2023-03-01T10:52:29;12.75;;;8.63;;
43248;SDS011;29216;51.248;6.808;2023-03-01T10:54:59;13.57;;;7.72;;
43248;SDS011;29216;51.248;6.808;2023-03-01T10:57:32;12.48;;;7.65;;
43248;SDS011;29216;51.248;6.808;2023-03-01T11:00:23;12.05;;;6.97;;
43248;SDS011;29216;51.248;6.808;2023-03-01T11:03:09;12.65;;;7.75;;
43248;SDS011;29216;51.248;6.808;2023-03-01T11:05:37;10.40;;;7.32;;
43248;SDS011;29216;51.248;6.808;2023-03-01T11:08:44;12.68;;;7.47;;
43248;SDS011;29216;51.248;6.808;2023-03-01T11:13:38;11.55;;;7.43;;
43248;SDS011;29216;51.248;6.808;2023-03-01T11:16:22;12.95;;;8.10;;
43248;SDS011;29216;51.248;6.808;2023-03-01T11:19:00;11.52;;;7.22;;
43248;SDS011;29216;51.248;6.808;2023-03-01T11:21:29;17.73;;;7.45;;
43248;SDS011;29216;51.248;6.808;2023-03-01T11:23:59;9.88;;;7.22;;
43248;SDS011;29216;51.248;6.808;2023-03-01T11:26:27;10.65;;;7.32;;
43248;SDS011;29216;51.248;6.808;2023-03-01T11:28:55;13.70;;;7.63;;
43248;SDS011;29216;51.248;6.808;2023-03-01T11:31:25;11.48;;;7.20;;
43248;SDS011;29216;51.248;6.808;2023-03-01T11:33:56;11.52;;;7.10;;
43248;SDS011;29216;51.248;6.808;2023-03-01T11:36:33;12.27;;;7.80;;
43248;SDS011;29216;51.248;6.808;2023-03-01T11:39:17;12.25;;;7.10;;
43248;SDS011;29216;51.248;6.808;2023-03-01T11:41:44;13.05;;;6.97;;
43248;SDS011;29216;51.248;6.808;2023-03-01T11:44:18;12.43;;;7.53;;
43248;SDS011;29216;51.248;6.808;2023-03-01T11:49:40;10.68;;;7.20;;
43248;SDS011;29216;51.248;6.808;2023-03-01T11:55:51;12.18;;;7.07;;
43248;SDS011;29216;51.248;6.808;2023-03-01T12:11:23;9.60;;;6.18;;
43248;SDS011;29216;51.248;6.808;2023-03-01T12:19:26;11.90;;;6.15;;
43248;SDS011;29216;51.248;6.808;2023-03-01T12:27:21;13.35;;;6.50;;
43248;SDS011;29216;51.248;6.808;2023-03-01T12:30:01;9.05;;;6.32;;
43248;SDS011;29216;51.248;6.808;2023-03-01T12:32:43;9.80;;;6.07;;
43248;SDS011;29216;51.248;6.808;2023-03-01T12:41:03;9.93;;;6.00;;
43248;SDS011;29216;51.248;6.808;2023-03-01T12:44:15;8.50;;;5.95;;
43248;SDS011;29216;51.248;6.808;2023-03-01T12:49:37;10.57;;;6.45;;
43248;SDS011;29216;51.248;6.808;2023-03-01T12:52:10;10.02;;;6.63;;
43248;SDS011;29216;51.248;6.808;2023-03-01T12:54:48;9.90;;;6.00;;
43248;SDS011;29216;51.248;6.808;2023-03-01T13:02:47;8.15;;;5.85;;
43248;SDS011;29216;51.248;6.808;2023-03-01T13:08:24;9.30;;;5.68;;
43248;SDS011;29216;51.248;6.808;2023-03-01T13:11:10;9.65;;;5.80;;
43248;SDS011;29216;51.248;6.808;2023-03-01T13:13:42;7.88;;;5.15;;
43248;SDS011;29216;51.248;6.808;2023-03-01T13:16:19;8.02;;;5.55;;
43248;SDS011;29216;51.248;6.808;2023-03-01T13:18:47;10.32;;;6.18;;
43248;SDS011;29216;51.248;6.808;2023-03-01T13:21:13;9.90;;;5.70;;
43248;SDS011;29216;51.248;6.808;2023-03-01T13:23:55;10.43;;;5.93;;
43248;SDS011;29216;51.248;6.808;2023-03-01T13:26:21;11.00;;;5.47;;
43248;SDS011;29216;51.248;6.808;2023-03-01T13:28:56;8.80;;;5.40;;
43248;SDS011;29216;51.248;6.808;2023-03-01T13:33:58;8.93;;;5.55;;
43248;SDS011;29216;51.248;6.808;2023-03-01T13:39:03;10.60;;;6.05;;
43248;SDS011;29216;51.248;6.808;2023-03-01T13:49:29;11.88;;;5.32;;
43248;SDS011;29216;51.248;6.808;2023-03-01T13:52:30;8.38;;;5.78;;
43248;SDS011;29216;51.248;6.808;2023-03-01T13:55:18;14.05;;;5.95;;
43248;SDS011;29216;51.248;6.808;2023-03-01T13:57:46;7.80;;;5.57;;
43248;SDS011;29216;51.248;6.808;2023-03-01T14:00:38;8.98;;;5.20;;
43248;SDS011;29216;51.248;6.808;2023-03-01T14:05:57;9.00;;;5.70;;
43248;SDS011;29216;51.248;6.808;2023-03-01T14:09:08;10.43;;;5.95;;
43248;SDS011;29216;51.248;6.808;2023-03-01T14:12:00;8.43;;;5.93;;
43248;SDS011;29216;51.248;6.808;2023-03-01T14:17:44;9.50;;;5.90;;
43248;SDS011;29216;51.248;6.808;2023-03-01T14:20:23;12.02;;;5.82;;
43248;SDS011;29216;51.248;6.808;2023-03-01T14:22:58;7.68;;;5.40;;
43248;SDS011;29216;51.248;6.808;2023-03-01T14:25:27;10.15;;;6.47;;
43248;SDS011;29216;51.248;6.808;2023-03-01T14:28:02;8.25;;;5.72;;
43248;SDS011;29216;51.248;6.808;2023-03-01T14:38:38;7.60;;;5.60;;
43248;SDS011;29216;51.248;6.808;2023-03-01T14:41:09;9.30;;;5.57;;
43248;SDS011;29216;51.248;6.808;2023-03-01T14:43:41;9.27;;;6.03;;
43248;SDS011;29216;51.248;6.808;2023-03-01T14:49:21;7.88;;;5.65;;
43248;SDS011;29216;51.248;6.808;2023-03-01T14:51:54;9.35;;;5.57;;
43248;SDS011;29216;51.248;6.808;2023-03-01T14:54:28;9.80;;;6.05;;
43248;SDS011;29216;51.248;6.808;2023-03-01T14:57:01;9.50;;;5.57;;
43248;SDS011;29216;51.248;6.808;2023-03-01T14:59:27;9.57;;;5.50;;
43248;SDS011;29216;51.248;6.808;2023-03-01T15:01:55;13.18;;;6.45;;
43248;SDS011;29216;51.248;6.808;2023-03-01T15:04:22;8.60;;;5.53;;
43248;SDS011;29216;51.248;6.808;2023-03-01T15:06:52;8.55;;;5.70;;
43248;SDS011;29216;51.248;6.808;2023-03-01T15:09:19;10.52;;;6.53;;
43248;SDS011;29216;51.248;6.808;2023-03-01T15:11:46;8.95;;;5.40;;
43248;SDS011;29216;51.248;6.808;2023-03-01T15:17:01;10.40;;;5.40;;
43248;SDS011;29216;51.248;6.808;2023-03-01T15:19:26;8.43;;;5.50;;
43248;SDS011;29216;51.248;6.808;2023-03-01T15:21:53;10.18;;;6.22;;
43248;SDS011;29216;51.248;6.808;2023-03-01T15:24:22;10.88;;;6.32;;
43248;SDS011;29216;51.248;6.808;2023-03-01T15:26:54;8.95;;;5.90;;
43248;SDS011;29216;51.248;6.808;2023-03-01T15:29:26;10.90;;;5.63;;
43248;SDS011;29216;51.248;6.808;2023-03-01T15:34:35;7.80;;;5.20;;
43248;SDS011;29216;51.248;6.808;2023-03-01T15:37:03;11.43;;;5.75;;
43248;SDS011;29216;51.248;6.808;2023-03-01T15:41:58;9.15;;;5.55;;
43248;SDS011;29216;51.248;6.808;2023-03-01T15:44:28;8.45;;;5.63;;
43248;SDS011;29216;51.248;6.808;2023-03-01T15:46:55;8.02;;;4.93;;
43248;SDS011;29216;51.248;6.808;2023-03-01T15:52:54;9.45;;;5.65;;
43248;SDS011;29216;51.248;6.808;2023-03-01T15:55:00;8.93;;;5.53;;
43248;SDS011;29216;51.248;6.808;2023-03-01T15:57:27;7.47;;;5.07;;
43248;SDS011;29216;51.248;6.808;2023-03-01T15:59:53;7.32;;;4.78;;
43248;SDS011;29216;51.248;6.808;2023-03-01T16:02:19;8.93;;;5.32;;
43248;SDS011;29216;51.248;6.808;2023-03-01T16:04:46;8.00;;;5.07;;
43248;SDS011;29216;51.248;6.808;2023-03-01T16:07:13;6.53;;;4.65;;
43248;SDS011;29216;51.248;6.808;2023-03-01T16:09:39;6.80;;;4.72;;
43248;SDS011;29216;51.248;6.808;2023-03-01T16:12:05;9.50;;;5.15;;
43248;SDS011;29216;51.248;6.808;2023-03-01T16:14:34;6.82;;;4.82;;
43248;SDS011;29216;51.248;6.808;2023-03-01T16:17:00;7.90;;;5.10;;
43248;SDS011;29216;51.248;6.808;2023-03-01T16:19:25;8.55;;;4.97;;
43248;SDS011;29216;51.248;6.808;2023-03-01T16:21:51;11.57;;;4.68;;
43248;SDS011;29216;51.248;6.808;2023-03-01T16:24:17;7.97;;;4.57;;
43248;SDS011;29216;51.248;6.808;2023-03-01T16:26:42;11.27;;;4.93;;
43248;SDS011;29216;51.248;6.808;2023-03-01T16:29:08;7.60;;;4.95;;
43248;SDS011;29216;51.248;6.808;2023-03-01T16:31:33;11.18;;;5.10;;
43248;SDS011;29216;51.248;6.808;2023-03-01T16:33:59;9.10;;;4.68;;
43248;SDS011;29216;51.248;6.808;2023-03-01T16:36:25;12.02;;;5.22;;
43248;SDS011;29216;51.248;6.808;2023-03-01T16:38:53;8.02;;;4.60;;
43248;SDS011;29216;51.248;6.808;2023-03-01T16:41:20;8.45;;;5.00;;
43248;SDS011;29216;51.248;6.808;2023-03-01T16:43:47;8.45;;;5.35;;
43248;SDS011;29216;51.248;6.808;2023-03-01T16:46:14;8.93;;;5.13;;
43248;SDS011;29216;51.248;6.808;2023-03-01T16:48:47;7.95;;;5.25;;
43248;SDS011;29216;51.248;6.808;2023-03-01T16:51:15;6.90;;;4.68;;
43248;SDS011;29216;51.248;6.808;2023-03-01T16:53:41;8.18;;;5.35;;
43248;SDS011;29216;51.248;6.808;2023-03-01T16:56:08;8.60;;;5.03;;
43248;SDS011;29216;51.248;6.808;2023-03-01T16:58:36;7.18;;;5.13;;